»·PEaware :: ACA568 CYVR-KSFO

ACA568 :: CYVR-KSFO

FLIGHT INFORMATION

Flight Status: Arrived
Operator:
Air Canada
More flights by this operator :: More flights under this callsign
Pilot: Matthew M. (8235)
Aircraft: AIRBUS A320
(A320)
More flights by this aircraft type
Origin: CYVR Vancouver Intl
Canada
Destination: KSFO San Francisco Intl
United States
More flights between these airports :: More routes between these airports
Route: YYJ J589 ELMAA Q1 ETCHY MLBEC BDEGA3
File this flight plan on PilotEdge
Remarks:
Altitude:
(Current/Filed)
37,000ft
Speed:
(Current/Filed)
449kts
Departed: 05-Mar-20 12:05 PM
Arrived: 05-Mar-20 02:06 PM
Distance/Time
Traveled:
695nm/2:01
Distance/Time
To Go:
Arrived

Flight Plot

Page will automatically refresh every two minutes.


Map Options




Map Legend


Flown Route
Filed Route
Departure Airport
Arrival Airport
Navaid (VOR, NDB)
Fix

Horizontal Profiles

Position Reports

Time Latitude Longitude Heading Altitude Ground
Speed
05-Mar-20 11:35 49.198336 -123.174586 181 28ft 0kts
05-Mar-20 11:36 49.198336 -123.174586 181 28ft 0kts
05-Mar-20 11:37 49.198336 -123.174586 181 28ft 0kts
05-Mar-20 11:38 49.198336 -123.174586 181 28ft 0kts
05-Mar-20 11:39 49.198336 -123.174586 181 28ft 0kts
05-Mar-20 11:40 49.198336 -123.174586 181 28ft 0kts
05-Mar-20 11:41 49.198336 -123.174586 181 28ft 0kts
05-Mar-20 11:42 49.198336 -123.174586 181 28ft 0kts
05-Mar-20 11:43 49.198336 -123.174586 181 28ft 0kts
05-Mar-20 11:44 49.198336 -123.174586 181 28ft 0kts
05-Mar-20 11:45 49.198336 -123.174586 181 28ft 0kts
05-Mar-20 11:46 49.198336 -123.174586 181 28ft 0kts
05-Mar-20 11:47 49.198336 -123.174586 181 28ft 0kts
05-Mar-20 11:48 49.198336 -123.174586 181 28ft 0kts
05-Mar-20 11:49 49.198336 -123.174586 181 28ft 0kts
05-Mar-20 11:50 49.198336 -123.174586 181 28ft 0kts
05-Mar-20 11:51 49.198336 -123.174586 181 28ft 0kts
05-Mar-20 11:52 49.198336 -123.174586 181 28ft 0kts
05-Mar-20 11:53 49.198337 -123.174586 181 28ft 0kts
05-Mar-20 11:54 49.198917 -123.174445 208 28ft 2kts
05-Mar-20 11:55 49.199051 -123.173946 280 28ft 0kts
05-Mar-20 11:56 49.199051 -123.173946 280 28ft 0kts
05-Mar-20 11:57 49.199076 -123.174164 279 28ft 4kts
05-Mar-20 11:58 49.199625 -123.178403 320 28ft 12kts
05-Mar-20 11:59 49.200716 -123.181234 279 28ft 12kts
05-Mar-20 12:00 49.201759 -123.189978 279 28ft 26kts
05-Mar-20 12:01 49.202617 -123.198277 278 28ft 10kts
05-Mar-20 12:02 49.204051 -123.201138 30 28ft 0kts
05-Mar-20 12:03 49.204955 -123.199204 99 28ft 18kts
05-Mar-20 12:04 49.199702 -123.149290 101 1313ft 161kts
05-Mar-20 12:05 49.149840 -123.122394 186 2014ft 245kts
05-Mar-20 12:06 49.107710 -123.196340 250 3642ft 256kts
05-Mar-20 12:07 49.082415 -123.297975 241 7382ft 259kts
05-Mar-20 12:08 49.022800 -123.347185 196 10682ft 259kts
05-Mar-20 12:09 48.946301 -123.382280 199 12526ft 311kts
05-Mar-20 12:10 48.862027 -123.421635 201 15136ft 322kts
05-Mar-20 12:11 48.775286 -123.461776 202 17470ft 332kts
05-Mar-20 12:12 48.682290 -123.484326 186 19607ft 353kts
05-Mar-20 12:13 48.582621 -123.477528 187 21536ft 359kts
05-Mar-20 12:14 48.481399 -123.473514 187 23257ft 367kts
05-Mar-20 12:15 48.378858 -123.468831 187 24776ft 373kts
05-Mar-20 12:16 48.273821 -123.464165 187 26141ft 380kts
05-Mar-20 12:17 48.167065 -123.459051 187 27353ft 387kts
05-Mar-20 12:18 48.058351 -123.453602 187 28451ft 393kts
05-Mar-20 12:20 47.947923 -123.448166 186 29393ft 400kts
05-Mar-20 12:21 47.837380 -123.442717 187 30701ft 395kts
05-Mar-20 12:22 47.727773 -123.437409 187 31912ft 393kts
05-Mar-20 12:23 47.618692 -123.432097 187 33007ft 390kts
05-Mar-20 12:24 47.510618 -123.426910 187 34036ft 388kts
05-Mar-20 12:25 47.402018 -123.421709 187 34760ft 391kts
05-Mar-20 12:26 47.293230 -123.416444 187 35462ft 392kts
05-Mar-20 12:27 47.183901 -123.411263 187 36088ft 393kts
05-Mar-20 12:28 47.073909 -123.406896 187 36622ft 394kts
05-Mar-20 12:29 46.964186 -123.403495 187 37114ft 396kts
05-Mar-20 12:30 46.853914 -123.399866 187 37120ft 395kts
05-Mar-20 12:31 46.743881 -123.396470 187 37127ft 395kts
05-Mar-20 12:32 46.633896 -123.393017 186 37134ft 395kts
05-Mar-20 12:33 46.523689 -123.389581 186 37122ft 396kts
05-Mar-20 12:34 46.413423 -123.386165 186 37129ft 396kts
05-Mar-20 12:35 46.303032 -123.382744 186 37149ft 396kts
05-Mar-20 12:36 46.192819 -123.379353 186 37163ft 397kts
05-Mar-20 12:37 46.082390 -123.375961 186 37180ft 396kts
05-Mar-20 12:38 45.972322 -123.372603 186 37135ft 396kts
05-Mar-20 12:39 45.861604 -123.369272 186 37121ft 398kts
05-Mar-20 12:39 45.768933 -123.366437 186 37187ft 398kts
05-Mar-20 12:41 45.639483 -123.362539 186 37199ft 400kts
05-Mar-20 12:42 45.527885 -123.359175 186 37212ft 400kts
05-Mar-20 12:42 45.435356 -123.356404 186 37193ft 400kts
05-Mar-20 12:43 45.324002 -123.353098 186 37152ft 400kts
05-Mar-20 12:45 45.194015 -123.349215 186 37145ft 401kts
05-Mar-20 12:45 45.100494 -123.346457 186 37149ft 401kts
05-Mar-20 12:46 44.988801 -123.343142 185 37160ft 402kts
05-Mar-20 12:47 44.877021 -123.339865 185 37208ft 402kts
05-Mar-20 12:48 44.765195 -123.336599 185 37192ft 403kts
05-Mar-20 12:49 44.653025 -123.333348 185 37198ft 403kts
05-Mar-20 12:50 44.540885 -123.330054 185 37187ft 403kts
05-Mar-20 12:51 44.428570 -123.326157 185 37210ft 404kts
05-Mar-20 12:52 44.316241 -123.321478 185 37234ft 404kts
05-Mar-20 12:53 44.204355 -123.317019 185 37233ft 404kts
05-Mar-20 12:54 44.091166 -123.312535 185 37234ft 404kts
05-Mar-20 12:55 43.978787 -123.308070 184 37234ft 404kts
05-Mar-20 12:56 43.866528 -123.303652 184 37176ft 405kts
05-Mar-20 12:57 43.753279 -123.299139 184 37148ft 406kts
05-Mar-20 12:58 43.639933 -123.294722 184 37184ft 407kts
05-Mar-20 12:59 43.526494 -123.290314 184 37230ft 408kts
05-Mar-20 13:00 43.413122 -123.285879 184 37226ft 408kts
05-Mar-20 13:01 43.299391 -123.281467 184 37191ft 408kts
05-Mar-20 13:02 43.185955 -123.277111 184 37139ft 409kts
05-Mar-20 13:03 43.071763 -123.272685 184 37134ft 410kts
05-Mar-20 13:04 42.957871 -123.268313 184 37177ft 410kts
05-Mar-20 13:05 42.843436 -123.263936 184 37212ft 411kts
05-Mar-20 13:06 42.729195 -123.259578 184 37194ft 411kts
05-Mar-20 13:07 42.614978 -123.255265 184 37185ft 411kts
05-Mar-20 13:08 42.500448 -123.250957 183 37138ft 412kts
05-Mar-20 13:09 42.386094 -123.246664 184 37142ft 412kts
05-Mar-20 13:10 42.271003 -123.242405 183 37139ft 413kts
05-Mar-20 13:11 42.156518 -123.238253 183 37195ft 412kts
05-Mar-20 13:12 42.041520 -123.234008 183 37210ft 413kts
05-Mar-20 13:13 41.926387 -123.229832 183 37177ft 414kts
05-Mar-20 13:14 41.810665 -123.225615 183 37147ft 416kts
05-Mar-20 13:15 41.694577 -123.221399 183 37203ft 417kts
05-Mar-20 13:16 41.578618 -123.217231 183 37252ft 418kts
05-Mar-20 13:17 41.462414 -123.213284 183 37259ft 418kts
05-Mar-20 13:18 41.346500 -123.209254 183 37230ft 418kts
05-Mar-20 13:19 41.229591 -123.206185 183 37253ft 417kts
05-Mar-20 13:20 41.113332 -123.203225 183 37186ft 419kts
05-Mar-20 13:21 40.996551 -123.200277 183 37197ft 419kts
05-Mar-20 13:22 40.879774 -123.197374 183 37235ft 420kts
05-Mar-20 13:23 40.762651 -123.194490 183 37244ft 420kts
05-Mar-20 13:24 40.645977 -123.191508 183 37210ft 421kts
05-Mar-20 13:25 40.528370 -123.188600 182 37169ft 422kts
05-Mar-20 13:26 40.410997 -123.185699 183 37191ft 422kts
05-Mar-20 13:27 40.293731 -123.182792 182 37223ft 422kts
05-Mar-20 13:28 40.176091 -123.179908 182 37227ft 422kts
05-Mar-20 13:29 40.058454 -123.177041 182 37250ft 422kts
05-Mar-20 13:30 39.940689 -123.174042 182 37207ft 423kts
05-Mar-20 13:31 39.822859 -123.168213 181 37168ft 421kts
05-Mar-20 13:32 39.706584 -123.162879 181 37195ft 420kts
05-Mar-20 13:33 39.588293 -123.157429 181 37217ft 426kts
05-Mar-20 13:34 39.469763 -123.151985 181 37220ft 426kts
05-Mar-20 13:35 39.351383 -123.146577 181 37210ft 426kts
05-Mar-20 13:36 39.232688 -123.141157 181 37199ft 426kts
05-Mar-20 13:37 39.114354 -123.134361 175 37199ft 429kts
05-Mar-20 13:38 39.005480 -123.066500 150 37157ft 443kts
05-Mar-20 13:39 38.903050 -122.982074 152 35092ft 440kts
05-Mar-20 13:40 38.788380 -122.932618 171 31805ft 431kts
05-Mar-20 13:41 38.672028 -122.899222 170 28989ft 426kts
05-Mar-20 13:42 38.558450 -122.865399 170 26680ft 403kts
05-Mar-20 13:43 38.453678 -122.834693 170 24867ft 378kts
05-Mar-20 13:44 38.352771 -122.805080 169 22840ft 368kts
05-Mar-20 13:45 38.253673 -122.776081 170 20949ft 358kts
05-Mar-20 13:46 38.157590 -122.748072 169 19180ft 352kts
05-Mar-20 13:47 38.063189 -122.720603 169 17403ft 345kts
05-Mar-20 13:48 37.969926 -122.693712 169 15688ft 342kts
05-Mar-20 13:49 37.880947 -122.656577 145 14024ft 341kts
05-Mar-20 13:50 37.811322 -122.579457 142 12640ft 316kts
05-Mar-20 13:51 37.747193 -122.512263 143 11477ft 293kts
05-Mar-20 13:52 37.685963 -122.447112 142 11001ft 287kts
05-Mar-20 13:53 37.624930 -122.382278 142 11002ft 286kts
05-Mar-20 13:54 37.557325 -122.334653 156 9537ft 277kts
05-Mar-20 13:55 37.489625 -122.292064 154 8065ft 263kts
05-Mar-20 13:56 37.448232 -122.225397 113 6979ft 236kts
05-Mar-20 13:57 37.441180 -122.149852 53 5773ft 222kts
05-Mar-20 13:58 37.491359 -122.127218 337 4962ft 192kts
05-Mar-20 13:59 37.531485 -122.167470 295 3427ft 180kts
05-Mar-20 14:00 37.553440 -122.219625 297 2468ft 150kts
05-Mar-20 14:01 37.571548 -122.262702 298 1711ft 137kts
05-Mar-20 14:02 37.589401 -122.305231 300 982ft 136kts
05-Mar-20 14:03 37.607067 -122.347311 300 260ft 134kts
05-Mar-20 14:04 37.620527 -122.379344 295 27ft 60kts
05-Mar-20 14:05 37.621615 -122.386758 302 27ft 10kts
05-Mar-20 14:06 37.622325 -122.389745 253 27ft 12kts
05-Mar-20 14:07 37.619967 -122.393627 262 27ft 16kts
05-Mar-20 14:08 37.617670 -122.393529 96 27ft 2kts
05-Mar-20 14:09 37.617913 -122.393215 27 27ft 1kts
05-Mar-20 14:10 37.617994 -122.393160 28 27ft 0kts

Navigation Log

Ident Type
Flight plan parsing failed, navigation log unavailable